sensor_id;sensor_type;location;lat;lon;timestamp;temperature;humidity
23116;DHT22;11727;52.134;5.052;2023-05-16T00:01:21;8.90;99.90
23116;DHT22;11727;52.134;5.052;2023-05-16T00:03:47;8.80;99.90
23116;DHT22;11727;52.134;5.052;2023-05-16T00:06:13;8.80;99.90
23116;DHT22;11727;52.134;5.052;2023-05-16T00:08:39;8.80;99.90
23116;DHT22;11727;52.134;5.052;2023-05-16T00:11:05;8.80;99.90
23116;DHT22;11727;52.134;5.052;2023-05-16T00:13:31;8.80;99.90
23116;DHT22;11727;52.134;5.052;2023-05-16T00:15:56;8.70;99.90
23116;DHT22;11727;52.134;5.052;2023-05-16T00:18:26;8.80;99.90
23116;DHT22;11727;52.134;5.052;2023-05-16T00:20:53;8.80;99.90
23116;DHT22;11727;52.134;5.052;2023-05-16T00:23:19;8.70;99.90
23116;DHT22;11727;52.134;5.052;2023-05-16T00:25:46;8.80;99.90
23116;DHT22;11727;52.134;5.052;2023-05-16T00:28:13;8.70;99.90
23116;DHT22;11727;52.134;5.052;2023-05-16T00:30:38;8.70;99.90
23116;DHT22;11727;52.134;5.052;2023-05-16T00:33:04;8.70;99.90
23116;DHT22;11727;52.134;5.052;2023-05-16T00:35:30;8.70;99.90
23116;DHT22;11727;52.134;5.052;2023-05-16T00:37:56;8.70;99.90
23116;DHT22;11727;52.134;5.052;2023-05-16T00:40:21;8.70;99.90
23116;DHT22;11727;52.134;5.052;2023-05-16T00:42:47;8.70;99.90
23116;DHT22;11727;52.134;5.052;2023-05-16T00:45:12;8.70;99.90
23116;DHT22;11727;52.134;5.052;2023-05-16T00:47:38;8.70;99.90
23116;DHT22;11727;52.134;5.052;2023-05-16T00:50:04;8.60;99.90
23116;DHT22;11727;52.134;5.052;2023-05-16T00:52:30;8.60;99.90
23116;DHT22;11727;52.134;5.052;2023-05-16T00:54:57;8.60;99.90
23116;DHT22;11727;52.134;5.052;2023-05-16T00:57:23;8.60;99.90
23116;DHT22;11727;52.134;5.052;2023-05-16T00:59:49;8.60;99.90
23116;DHT22;11727;52.134;5.052;2023-05-16T01:02:15;8.60;99.90
23116;DHT22;11727;52.134;5.052;2023-05-16T01:04:42;8.50;99.90
23116;DHT22;11727;52.134;5.052;2023-05-16T01:07:08;8.60;99.90
23116;DHT22;11727;52.134;5.052;2023-05-16T01:09:34;8.50;99.90
23116;DHT22;11727;52.134;5.052;2023-05-16T01:14:45;8.50;99.90
23116;DHT22;11727;52.134;5.052;2023-05-16T01:17:35;8.50;99.90
23116;DHT22;11727;52.134;5.052;2023-05-16T01:25:21;8.50;99.90
23116;DHT22;11727;52.134;5.052;2023-05-16T01:27:51;8.50;99.90
23116;DHT22;11727;52.134;5.052;2023-05-16T01:30:18;8.40;99.90
23116;DHT22;11727;52.134;5.052;2023-05-16T01:32:45;8.40;99.90
23116;DHT22;11727;52.134;5.052;2023-05-16T01:35:13;8.50;99.90
23116;DHT22;11727;52.134;5.052;2023-05-16T01:37:44;8.40;99.90
23116;DHT22;11727;52.134;5.052;2023-05-16T01:42:49;8.50;99.90
23116;DHT22;11727;52.134;5.052;2023-05-16T01:45:26;8.40;99.90
23116;DHT22;11727;52.134;5.052;2023-05-16T01:48:16;8.40;99.90
23116;DHT22;11727;52.134;5.052;2023-05-16T01:50:47;8.40;99.90
23116;DHT22;11727;52.134;5.052;2023-05-16T01:53:18;8.30;99.90
23116;DHT22;11727;52.134;5.052;2023-05-16T01:55:47;8.40;99.90
23116;DHT22;11727;52.134;5.052;2023-05-16T01:58:13;8.40;99.90
23116;DHT22;11727;52.134;5.052;2023-05-16T02:00:42;8.40;99.90
23116;DHT22;11727;52.134;5.052;2023-05-16T02:03:08;8.30;99.90
23116;DHT22;11727;52.134;5.052;2023-05-16T02:05:33;8.30;99.90
23116;DHT22;11727;52.134;5.052;2023-05-16T02:07:59;8.30;99.90
23116;DHT22;11727;52.134;5.052;2023-05-16T02:10:26;8.20;99.90
23116;DHT22;11727;52.134;5.052;2023-05-16T02:12:52;8.20;99.90
23116;DHT22;11727;52.134;5.052;2023-05-16T02:15:18;8.20;99.90
23116;DHT22;11727;52.134;5.052;2023-05-16T02:17:43;8.20;99.90
23116;DHT22;11727;52.134;5.052;2023-05-16T02:20:09;8.20;99.90
23116;DHT22;11727;52.134;5.052;2023-05-16T02:22:36;8.20;99.90
23116;DHT22;11727;52.134;5.052;2023-05-16T02:25:05;8.20;99.90
23116;DHT22;11727;52.134;5.052;2023-05-16T02:27:31;8.10;99.90
23116;DHT22;11727;52.134;5.052;2023-05-16T02:29:57;8.10;99.90
23116;DHT22;11727;52.134;5.052;2023-05-16T02:32:23;8.10;99.90
23116;DHT22;11727;52.134;5.052;2023-05-16T02:34:48;8.10;99.90
23116;DHT22;11727;52.134;5.052;2023-05-16T02:37:14;8.10;99.90
23116;DHT22;11727;52.134;5.052;2023-05-16T02:39:40;8.10;99.90
23116;DHT22;11727;52.134;5.052;2023-05-16T02:42:06;8.10;99.90
23116;DHT22;11727;52.134;5.052;2023-05-16T02:44:32;8.10;99.90
23116;DHT22;11727;52.134;5.052;2023-05-16T02:46:58;8.00;99.90
23116;DHT22;11727;52.134;5.052;2023-05-16T02:49:24;8.00;99.90
23116;DHT22;11727;52.134;5.052;2023-05-16T02:51:50;7.90;99.90
23116;DHT22;11727;52.134;5.052;2023-05-16T02:54:16;8.00;99.90
23116;DHT22;11727;52.134;5.052;2023-05-16T02:56:42;7.90;99.90
23116;DHT22;11727;52.134;5.052;2023-05-16T02:59:09;7.90;99.90
23116;DHT22;11727;52.134;5.052;2023-05-16T03:01:35;7.80;99.90
23116;DHT22;11727;52.134;5.052;2023-05-16T03:04:01;7.80;99.90
23116;DHT22;11727;52.134;5.052;2023-05-16T03:06:26;7.80;99.90
23116;DHT22;11727;52.134;5.052;2023-05-16T03:08:52;7.80;99.90
23116;DHT22;11727;52.134;5.052;2023-05-16T03:11:18;7.80;99.90
23116;DHT22;11727;52.134;5.052;2023-05-16T03:13:46;7.80;99.90
23116;DHT22;11727;52.134;5.052;2023-05-16T03:16:12;7.80;99.90
23116;DHT22;11727;52.134;5.052;2023-05-16T03:18:37;7.80;99.90
23116;DHT22;11727;52.134;5.052;2023-05-16T03:21:03;7.80;99.90
23116;DHT22;11727;52.134;5.052;2023-05-16T03:23:29;7.70;99.90
23116;DHT22;11727;52.134;5.052;2023-05-16T03:25:54;7.70;99.90
23116;DHT22;11727;52.134;5.052;2023-05-16T03:28:20;7.70;99.90
23116;DHT22;11727;52.134;5.052;2023-05-16T03:30:46;7.70;99.90
23116;DHT22;11727;52.134;5.052;2023-05-16T03:33:12;7.70;99.90
23116;DHT22;11727;52.134;5.052;2023-05-16T03:35:38;7.70;99.90
23116;DHT22;11727;52.134;5.052;2023-05-16T03:38:04;7.60;99.90
23116;DHT22;11727;52.134;5.052;2023-05-16T03:40:30;7.60;99.90
23116;DHT22;11727;52.134;5.052;2023-05-16T03:42:55;7.60;99.90
23116;DHT22;11727;52.134;5.052;2023-05-16T03:45:21;7.60;99.90
23116;DHT22;11727;52.134;5.052;2023-05-16T03:47:50;7.60;99.90
23116;DHT22;11727;52.134;5.052;2023-05-16T03:50:16;7.60;99.90
23116;DHT22;11727;52.134;5.052;2023-05-16T03:52:42;7.60;99.90
23116;DHT22;11727;52.134;5.052;2023-05-16T03:55:08;7.60;99.90
23116;DHT22;11727;52.134;5.052;2023-05-16T03:57:34;7.60;99.90
23116;DHT22;11727;52.134;5.052;2023-05-16T04:00:00;7.50;99.90
23116;DHT22;11727;52.134;5.052;2023-05-16T04:02:26;7.50;99.90
23116;DHT22;11727;52.134;5.052;2023-05-16T04:04:52;7.50;99.90
23116;DHT22;11727;52.134;5.052;2023-05-16T04:07:17;7.50;99.90
23116;DHT22;11727;52.134;5.052;2023-05-16T04:09:43;7.50;99.90
23116;DHT22;11727;52.134;5.052;2023-05-16T04:12:09;7.50;99.90
23116;DHT22;11727;52.134;5.052;2023-05-16T04:14:34;7.50;99.90
23116;DHT22;11727;52.134;5.052;2023-05-16T04:17:00;7.50;99.90
23116;DHT22;11727;52.134;5.052;2023-05-16T04:19:26;7.50;99.90
23116;DHT22;11727;52.134;5.052;2023-05-16T04:21:51;7.50;99.90
23116;DHT22;11727;52.134;5.052;2023-05-16T04:24:17;7.50;99.90
23116;DHT22;11727;52.134;5.052;2023-05-16T04:26:43;7.50;99.90
23116;DHT22;11727;52.134;5.052;2023-05-16T04:29:09;7.60;99.90
23116;DHT22;11727;52.134;5.052;2023-05-16T04:31:36;7.50;99.90
23116;DHT22;11727;52.134;5.052;2023-05-16T04:34:02;7.60;99.90
23116;DHT22;11727;52.134;5.052;2023-05-16T04:36:27;7.60;99.90
23116;DHT22;11727;52.134;5.052;2023-05-16T04:38:55;7.60;99.90
23116;DHT22;11727;52.134;5.052;2023-05-16T04:41:21;7.70;99.90
23116;DHT22;11727;52.134;5.052;2023-05-16T04:43:49;7.70;99.90
23116;DHT22;11727;52.134;5.052;2023-05-16T04:46:16;7.70;99.90
23116;DHT22;11727;52.134;5.052;2023-05-16T04:48:41;7.70;99.90
23116;DHT22;11727;52.134;5.052;2023-05-16T04:51:07;7.80;99.90
23116;DHT22;11727;52.134;5.052;2023-05-16T04:53:33;7.80;99.90
23116;DHT22;11727;52.134;5.052;2023-05-16T04:55:59;7.90;99.90
23116;DHT22;11727;52.134;5.052;2023-05-16T04:58:25;8.00;99.90
23116;DHT22;11727;52.134;5.052;2023-05-16T05:00:51;8.00;99.90
23116;DHT22;11727;52.134;5.052;2023-05-16T05:03:16;8.10;99.90
23116;DHT22;11727;52.134;5.052;2023-05-16T05:05:42;8.20;99.90
23116;DHT22;11727;52.134;5.052;2023-05-16T05:08:08;8.20;99.90
23116;DHT22;11727;52.134;5.052;2023-05-16T05:10:34;8.30;99.90
23116;DHT22;11727;52.134;5.052;2023-05-16T05:13:00;8.30;99.90
23116;DHT22;11727;52.134;5.052;2023-05-16T05:15:26;8.40;99.90
23116;DHT22;11727;52.134;5.052;2023-05-16T05:17:51;8.50;99.90
23116;DHT22;11727;52.134;5.052;2023-05-16T05:20:17;8.60;99.90
23116;DHT22;11727;52.134;5.052;2023-05-16T05:22:43;8.70;99.90
23116;DHT22;11727;52.134;5.052;2023-05-16T05:25:08;8.80;99.90
23116;DHT22;11727;52.134;5.052;2023-05-16T05:27:34;8.90;99.90
23116;DHT22;11727;52.134;5.052;2023-05-16T05:30:00;9.00;99.90
23116;DHT22;11727;52.134;5.052;2023-05-16T05:32:26;9.10;99.90
23116;DHT22;11727;52.134;5.052;2023-05-16T05:34:51;9.20;99.90
23116;DHT22;11727;52.134;5.052;2023-05-16T05:37:17;9.30;99.90
23116;DHT22;11727;52.134;5.052;2023-05-16T05:39:43;9.40;99.90
23116;DHT22;11727;52.134;5.052;2023-05-16T05:42:09;9.40;99.90
23116;DHT22;11727;52.134;5.052;2023-05-16T05:44:36;9.50;99.90
23116;DHT22;11727;52.134;5.052;2023-05-16T05:47:02;9.60;99.90
23116;DHT22;11727;52.134;5.052;2023-05-16T05:49:28;9.70;99.90
23116;DHT22;11727;52.134;5.052;2023-05-16T05:51:54;9.80;99.90
23116;DHT22;11727;52.134;5.052;2023-05-16T05:54:19;9.90;99.90
23116;DHT22;11727;52.134;5.052;2023-05-16T05:56:45;10.00;99.90
23116;DHT22;11727;52.134;5.052;2023-05-16T05:59:11;10.10;99.90
23116;DHT22;11727;52.134;5.052;2023-05-16T06:01:37;10.30;99.90
23116;DHT22;11727;52.134;5.052;2023-05-16T06:04:03;10.30;99.90
23116;DHT22;11727;52.134;5.052;2023-05-16T06:06:32;10.40;99.90
23116;DHT22;11727;52.134;5.052;2023-05-16T06:08:58;10.40;99.90
23116;DHT22;11727;52.134;5.052;2023-05-16T06:11:27;10.50;99.90
23116;DHT22;11727;52.134;5.052;2023-05-16T06:13:52;10.60;99.90
23116;DHT22;11727;52.134;5.052;2023-05-16T06:16:18;10.60;99.90
23116;DHT22;11727;52.134;5.052;2023-05-16T06:18:44;10.60;99.90
23116;DHT22;11727;52.134;5.052;2023-05-16T06:21:10;10.70;99.90
23116;DHT22;11727;52.134;5.052;2023-05-16T06:23:36;10.80;99.90
23116;DHT22;11727;52.134;5.052;2023-05-16T06:26:02;11.10;99.90
23116;DHT22;11727;52.134;5.052;2023-05-16T06:28:28;11.20;99.90
23116;DHT22;11727;52.134;5.052;2023-05-16T06:30:54;11.40;99.90
23116;DHT22;11727;52.134;5.052;2023-05-16T06:33:19;11.60;99.90
23116;DHT22;11727;52.134;5.052;2023-05-16T06:35:45;11.80;99.90
23116;DHT22;11727;52.134;5.052;2023-05-16T06:38:13;12.00;99.90
23116;DHT22;11727;52.134;5.052;2023-05-16T06:40:39;12.10;99.90
23116;DHT22;11727;52.134;5.052;2023-05-16T06:43:04;12.20;99.90
23116;DHT22;11727;52.134;5.052;2023-05-16T06:45:30;12.40;99.90
23116;DHT22;11727;52.134;5.052;2023-05-16T06:47:56;12.40;99.90
23116;DHT22;11727;52.134;5.052;2023-05-16T06:50:22;12.70;99.90
23116;DHT22;11727;52.134;5.052;2023-05-16T06:52:47;12.80;99.90
23116;DHT22;11727;52.134;5.052;2023-05-16T06:55:13;13.00;99.90
23116;DHT22;11727;52.134;5.052;2023-05-16T06:57:38;13.20;99.90
23116;DHT22;11727;52.134;5.052;2023-05-16T07:00:05;13.40;99.90
23116;DHT22;11727;52.134;5.052;2023-05-16T07:02:31;13.40;99.90
23116;DHT22;11727;52.134;5.052;2023-05-16T07:04:57;13.50;99.90
23116;DHT22;11727;52.134;5.052;2023-05-16T07:07:22;13.70;99.90
23116;DHT22;11727;52.134;5.052;2023-05-16T07:09:48;13.90;99.90
23116;DHT22;11727;52.134;5.052;2023-05-16T07:12:13;14.10;99.90
23116;DHT22;11727;52.134;5.052;2023-05-16T07:14:39;14.00;99.90
23116;DHT22;11727;52.134;5.052;2023-05-16T07:17:06;13.60;99.90
23116;DHT22;11727;52.134;5.052;2023-05-16T07:19:31;13.50;99.90
23116;DHT22;11727;52.134;5.052;2023-05-16T07:21:57;13.60;99.90
23116;DHT22;11727;52.134;5.052;2023-05-16T07:24:23;13.80;99.90
23116;DHT22;11727;52.134;5.052;2023-05-16T07:26:48;14.10;99.90
23116;DHT22;11727;52.134;5.052;2023-05-16T07:29:14;14.00;99.90
23116;DHT22;11727;52.134;5.052;2023-05-16T07:31:40;13.80;99.90
23116;DHT22;11727;52.134;5.052;2023-05-16T07:34:05;13.50;99.90
23116;DHT22;11727;52.134;5.052;2023-05-16T07:36:33;13.40;99.90
23116;DHT22;11727;52.134;5.052;2023-05-16T07:38:59;13.50;99.90
23116;DHT22;11727;52.134;5.052;2023-05-16T07:41:25;13.70;99.90
23116;DHT22;11727;52.134;5.052;2023-05-16T07:43:50;13.90;99.90
23116;DHT22;11727;52.134;5.052;2023-05-16T07:46:16;14.10;99.90
23116;DHT22;11727;52.134;5.052;2023-05-16T07:48:41;14.10;99.90
23116;DHT22;11727;52.134;5.052;2023-05-16T07:51:07;14.20;99.90
23116;DHT22;11727;52.134;5.052;2023-05-16T07:53:33;14.10;99.90
23116;DHT22;11727;52.134;5.052;2023-05-16T07:55:59;13.70;99.90
23116;DHT22;11727;52.134;5.052;2023-05-16T07:58:24;13.50;99.90
23116;DHT22;11727;52.134;5.052;2023-05-16T08:00:50;13.60;99.90
23116;DHT22;11727;52.134;5.052;2023-05-16T08:03:16;13.70;99.90
23116;DHT22;11727;52.134;5.052;2023-05-16T08:05:41;14.10;99.90
23116;DHT22;11727;52.134;5.052;2023-05-16T08:08:07;14.20;99.90
23116;DHT22;11727;52.134;5.052;2023-05-16T08:10:33;14.20;99.90
23116;DHT22;11727;52.134;5.052;2023-05-16T08:12:58;14.20;99.90
23116;DHT22;11727;52.134;5.052;2023-05-16T08:15:25;14.20;99.90
23116;DHT22;11727;52.134;5.052;2023-05-16T08:17:55;14.20;99.90
23116;DHT22;11727;52.134;5.052;2023-05-16T08:20:21;14.30;99.90
23116;DHT22;11727;52.134;5.052;2023-05-16T08:22:47;14.30;99.90
23116;DHT22;11727;52.134;5.052;2023-05-16T08:25:13;14.60;99.90
23116;DHT22;11727;52.134;5.052;2023-05-16T08:27:38;14.80;99.90
23116;DHT22;11727;52.134;5.052;2023-05-16T08:30:04;15.00;99.90
23116;DHT22;11727;52.134;5.052;2023-05-16T08:32:30;15.20;99.90
23116;DHT22;11727;52.134;5.052;2023-05-16T08:34:56;15.20;99.90
23116;DHT22;11727;52.134;5.052;2023-05-16T08:37:21;15.20;99.90
23116;DHT22;11727;52.134;5.052;2023-05-16T08:39:47;15.00;99.90
23116;DHT22;11727;52.134;5.052;2023-05-16T08:42:13;15.10;99.90
23116;DHT22;11727;52.134;5.052;2023-05-16T08:44:39;15.40;99.90
23116;DHT22;11727;52.134;5.052;2023-05-16T08:47:11;15.70;99.90
23116;DHT22;11727;52.134;5.052;2023-05-16T08:49:40;15.60;99.90
23116;DHT22;11727;52.134;5.052;2023-05-16T08:52:08;15.20;99.90
23116;DHT22;11727;52.134;5.052;2023-05-16T08:54:35;14.90;99.90
23116;DHT22;11727;52.134;5.052;2023-05-16T08:57:02;14.70;99.90
23116;DHT22;11727;52.134;5.052;2023-05-16T08:59:27;14.70;99.90
23116;DHT22;11727;52.134;5.052;2023-05-16T09:01:54;15.00;99.90
23116;DHT22;11727;52.134;5.052;2023-05-16T09:04:20;15.40;99.90
23116;DHT22;11727;52.134;5.052;2023-05-16T09:06:47;15.60;99.90
23116;DHT22;11727;52.134;5.052;2023-05-16T09:09:13;15.60;99.90
23116;DHT22;11727;52.134;5.052;2023-05-16T09:11:38;15.40;99.90
23116;DHT22;11727;52.134;5.052;2023-05-16T09:14:04;15.20;99.90
23116;DHT22;11727;52.134;5.052;2023-05-16T09:16:30;15.10;99.90
23116;DHT22;11727;52.134;5.052;2023-05-16T09:18:58;14.90;99.90
23116;DHT22;11727;52.134;5.052;2023-05-16T09:21:29;14.80;99.90
23116;DHT22;11727;52.134;5.052;2023-05-16T09:23:56;14.70;99.90
23116;DHT22;11727;52.134;5.052;2023-05-16T09:26:27;14.90;99.90
23116;DHT22;11727;52.134;5.052;2023-05-16T09:28:53;15.20;99.90
23116;DHT22;11727;52.134;5.052;2023-05-16T09:31:24;15.50;99.90
23116;DHT22;11727;52.134;5.052;2023-05-16T09:33:56;15.50;99.90
23116;DHT22;11727;52.134;5.052;2023-05-16T09:36:21;15.40;99.90
23116;DHT22;11727;52.134;5.052;2023-05-16T09:38:49;15.50;99.90
23116;DHT22;11727;52.134;5.052;2023-05-16T09:41:15;15.60;99.90
23116;DHT22;11727;52.134;5.052;2023-05-16T09:43:41;15.40;99.90
23116;DHT22;11727;52.134;5.052;2023-05-16T09:46:11;15.40;99.90
23116;DHT22;11727;52.134;5.052;2023-05-16T09:48:40;15.30;99.90
23116;DHT22;11727;52.134;5.052;2023-05-16T09:51:07;15.20;99.90
23116;DHT22;11727;52.134;5.052;2023-05-16T09:53:32;14.90;99.90
23116;DHT22;11727;52.134;5.052;2023-05-16T09:56:03;14.90;99.90
23116;DHT22;11727;52.134;5.052;2023-05-16T09:58:34;15.10;99.90
23116;DHT22;11727;52.134;5.052;2023-05-16T10:01:01;15.30;99.90
23116;DHT22;11727;52.134;5.052;2023-05-16T10:03:27;15.40;99.90
23116;DHT22;11727;52.134;5.052;2023-05-16T10:05:54;15.30;99.90
23116;DHT22;11727;52.134;5.052;2023-05-16T10:08:24;15.10;99.90
23116;DHT22;11727;52.134;5.052;2023-05-16T10:10:51;15.10;99.90
23116;DHT22;11727;52.134;5.052;2023-05-16T10:13:21;15.10;99.90
23116;DHT22;11727;52.134;5.052;2023-05-16T10:15:50;15.10;99.90
23116;DHT22;11727;52.134;5.052;2023-05-16T10:18:21;15.10;99.90
23116;DHT22;11727;52.134;5.052;2023-05-16T10:20:50;15.10;99.90
23116;DHT22;11727;52.134;5.052;2023-05-16T10:23:18;15.10;99.90
23116;DHT22;11727;52.134;5.052;2023-05-16T10:25:46;15.00;99.90
23116;DHT22;11727;52.134;5.052;2023-05-16T10:28:14;14.90;99.90
23116;DHT22;11727;52.134;5.052;2023-05-16T10:30:41;14.70;99.90
23116;DHT22;11727;52.134;5.052;2023-05-16T10:33:12;14.70;99.90
23116;DHT22;11727;52.134;5.052;2023-05-16T10:35:38;14.70;99.90
23116;DHT22;11727;52.134;5.052;2023-05-16T10:38:06;14.70;99.90
23116;DHT22;11727;52.134;5.052;2023-05-16T10:40:33;14.70;99.90
23116;DHT22;11727;52.134;5.052;2023-05-16T10:43:01;14.70;99.90
23116;DHT22;11727;52.134;5.052;2023-05-16T10:45:28;14.60;99.90
23116;DHT22;11727;52.134;5.052;2023-05-16T10:50:38;14.70;99.90
23116;DHT22;11727;52.134;5.052;2023-05-16T10:53:14;14.90;99.90
23116;DHT22;11727;52.134;5.052;2023-05-16T10:58:43;15.60;99.90
23116;DHT22;11727;52.134;5.052;2023-05-16T11:01:32;15.50;99.90
23116;DHT22;11727;52.134;5.052;2023-05-16T11:09:17;15.40;99.90
23116;DHT22;11727;52.134;5.052;2023-05-16T11:14:25;15.70;99.90
23116;DHT22;11727;52.134;5.052;2023-05-16T11:22:29;15.60;99.90
23116;DHT22;11727;52.134;5.052;2023-05-16T11:25:02;15.50;99.90
23116;DHT22;11727;52.134;5.052;2023-05-16T11:27:32;15.50;99.90
23116;DHT22;11727;52.134;5.052;2023-05-16T11:32:33;15.20;99.90
23116;DHT22;11727;52.134;5.052;2023-05-16T11:34:59;15.20;99.90
23116;DHT22;11727;52.134;5.052;2023-05-16T11:37:26;15.30;99.90
23116;DHT22;11727;52.134;5.052;2023-05-16T11:39:52;15.10;99.90
23116;DHT22;11727;52.134;5.052;2023-05-16T11:42:18;15.00;99.90
23116;DHT22;11727;52.134;5.052;2023-05-16T11:44:44;14.90;99.90
23116;DHT22;11727;52.134;5.052;2023-05-16T11:47:10;15.10;99.90
23116;DHT22;11727;52.134;5.052;2023-05-16T11:49:36;15.30;99.90
23116;DHT22;11727;52.134;5.052;2023-05-16T11:52:03;15.40;99.90
23116;DHT22;11727;52.134;5.052;2023-05-16T11:54:29;15.50;99.90
23116;DHT22;11727;52.134;5.052;2023-05-16T11:56:56;15.50;99.90
23116;DHT22;11727;52.134;5.052;2023-05-16T11:59:21;15.60;99.90
23116;DHT22;11727;52.134;5.052;2023-05-16T12:01:48;15.70;99.90
23116;DHT22;11727;52.134;5.052;2023-05-16T12:04:15;15.90;99.90
23116;DHT22;11727;52.134;5.052;2023-05-16T12:06:42;16.10;99.90
23116;DHT22;11727;52.134;5.052;2023-05-16T12:09:14;16.30;99.90
23116;DHT22;11727;52.134;5.052;2023-05-16T12:11:42;16.20;99.90
23116;DHT22;11727;52.134;5.052;2023-05-16T12:14:09;16.00;99.90
23116;DHT22;11727;52.134;5.052;2023-05-16T12:16:36;15.90;99.90
23116;DHT22;11727;52.134;5.052;2023-05-16T12:19:04;15.60;99.90
23116;DHT22;11727;52.134;5.052;2023-05-16T12:21:32;15.40;99.90
23116;DHT22;11727;52.134;5.052;2023-05-16T12:23:58;15.30;99.90
23116;DHT22;11727;52.134;5.052;2023-05-16T12:26:26;15.30;99.90
23116;DHT22;11727;52.134;5.052;2023-05-16T12:28:56;15.40;99.90
23116;DHT22;11727;52.134;5.052;2023-05-16T12:31:25;15.50;99.90
23116;DHT22;11727;52.134;5.052;2023-05-16T12:33:54;15.80;99.90
23116;DHT22;11727;52.134;5.052;2023-05-16T12:36:20;16.10;99.90
23116;DHT22;11727;52.134;5.052;2023-05-16T12:38:46;16.30;99.90
23116;DHT22;11727;52.134;5.052;2023-05-16T12:41:17;16.40;99.90
23116;DHT22;11727;52.134;5.052;2023-05-16T12:43:43;16.60;99.90
23116;DHT22;11727;52.134;5.052;2023-05-16T12:46:09;16.80;99.90
23116;DHT22;11727;52.134;5.052;2023-05-16T12:48:38;16.80;99.90
23116;DHT22;11727;52.134;5.052;2023-05-16T12:51:13;16.80;99.90
23116;DHT22;11727;52.134;5.052;2023-05-16T12:53:47;16.70;99.90
23116;DHT22;11727;52.134;5.052;2023-05-16T12:56:13;16.50;99.90
23116;DHT22;11727;52.134;5.052;2023-05-16T12:58:40;16.30;99.90
23116;DHT22;11727;52.134;5.052;2023-05-16T13:01:06;16.20;99.90
23116;DHT22;11727;52.134;5.052;2023-05-16T13:03:33;16.10;99.90
23116;DHT22;11727;52.134;5.052;2023-05-16T13:05:59;16.00;99.90
23116;DHT22;11727;52.134;5.052;2023-05-16T13:08:27;16.20;99.90
23116;DHT22;11727;52.134;5.052;2023-05-16T13:10:53;16.30;99.90
23116;DHT22;11727;52.134;5.052;2023-05-16T13:13:18;16.40;99.90
23116;DHT22;11727;52.134;5.052;2023-05-16T13:15:44;16.50;99.90
23116;DHT22;11727;52.134;5.052;2023-05-16T13:18:10;16.50;99.90
23116;DHT22;11727;52.134;5.052;2023-05-16T13:20:36;16.40;99.90
23116;DHT22;11727;52.134;5.052;2023-05-16T13:23:03;16.30;99.90
23116;DHT22;11727;52.134;5.052;2023-05-16T13:25:30;16.30;99.90
23116;DHT22;11727;52.134;5.052;2023-05-16T13:27:55;16.40;99.90
23116;DHT22;11727;52.134;5.052;2023-05-16T13:30:21;16.20;99.90
23116;DHT22;11727;52.134;5.052;2023-05-16T13:32:46;16.30;99.90
23116;DHT22;11727;52.134;5.052;2023-05-16T13:35:13;16.30;99.90
23116;DHT22;11727;52.134;5.052;2023-05-16T13:37:38;16.30;99.90
23116;DHT22;11727;52.134;5.052;2023-05-16T13:40:06;16.20;99.90
23116;DHT22;11727;52.134;5.052;2023-05-16T13:42:37;16.10;99.90
23116;DHT22;11727;52.134;5.052;2023-05-16T13:45:04;16.00;99.90
23116;DHT22;11727;52.134;5.052;2023-05-16T13:47:29;15.90;99.90
23116;DHT22;11727;52.134;5.052;2023-05-16T13:49:57;15.80;99.90
23116;DHT22;11727;52.134;5.052;2023-05-16T13:52:22;15.90;99.90
23116;DHT22;11727;52.134;5.052;2023-05-16T13:54:48;15.90;99.90
23116;DHT22;11727;52.134;5.052;2023-05-16T13:57:14;16.00;99.90
23116;DHT22;11727;52.134;5.052;2023-05-16T13:59:39;16.10;99.90
23116;DHT22;11727;52.134;5.052;2023-05-16T14:02:05;16.20;99.90
23116;DHT22;11727;52.134;5.052;2023-05-16T14:04:31;16.40;99.90
23116;DHT22;11727;52.134;5.052;2023-05-16T14:06:56;16.50;99.90
23116;DHT22;11727;52.134;5.052;2023-05-16T14:09:22;16.60;99.90
23116;DHT22;11727;52.134;5.052;2023-05-16T14:11:48;16.60;99.90
23116;DHT22;11727;52.134;5.052;2023-05-16T14:14:13;16.60;99.90
23116;DHT22;11727;52.134;5.052;2023-05-16T14:16:39;16.70;99.90
23116;DHT22;11727;52.134;5.052;2023-05-16T14:19:09;16.80;99.90
23116;DHT22;11727;52.134;5.052;2023-05-16T14:21:35;16.60;99.90
23116;DHT22;11727;52.134;5.052;2023-05-16T14:24:00;16.40;99.90
23116;DHT22;11727;52.134;5.052;2023-05-16T14:26:26;16.40;99.90
23116;DHT22;11727;52.134;5.052;2023-05-16T14:28:51;16.30;99.90
23116;DHT22;11727;52.134;5.052;2023-05-16T14:31:17;16.20;99.90
23116;DHT22;11727;52.134;5.052;2023-05-16T14:33:43;16.10;99.90
23116;DHT22;11727;52.134;5.052;2023-05-16T14:36:09;16.00;99.90
23116;DHT22;11727;52.134;5.052;2023-05-16T14:38:35;16.00;99.90
23116;DHT22;11727;52.134;5.052;2023-05-16T14:41:01;15.80;99.90
23116;DHT22;11727;52.134;5.052;2023-05-16T14:43:27;15.70;99.90
23116;DHT22;11727;52.134;5.052;2023-05-16T14:45:52;15.70;99.90
23116;DHT22;11727;52.134;5.052;2023-05-16T14:48:18;15.70;99.90
23116;DHT22;11727;52.134;5.052;2023-05-16T14:50:44;15.70;99.90
23116;DHT22;11727;52.134;5.052;2023-05-16T14:53:09;15.70;99.90
23116;DHT22;11727;52.134;5.052;2023-05-16T14:55:35;15.60;99.90
23116;DHT22;11727;52.134;5.052;2023-05-16T14:58:01;15.70;99.90
23116;DHT22;11727;52.134;5.052;2023-05-16T15:00:27;15.80;99.90
23116;DHT22;11727;52.134;5.052;2023-05-16T15:02:53;16.00;99.90
23116;DHT22;11727;52.134;5.052;2023-05-16T15:05:18;16.10;99.90
23116;DHT22;11727;52.134;5.052;2023-05-16T15:07:44;16.10;99.90
23116;DHT22;11727;52.134;5.052;2023-05-16T15:10:10;16.10;99.90
23116;DHT22;11727;52.134;5.052;2023-05-16T15:12:36;16.10;99.90
23116;DHT22;11727;52.134;5.052;2023-05-16T15:15:05;16.00;99.90
23116;DHT22;11727;52.134;5.052;2023-05-16T15:17:31;15.90;99.90
23116;DHT22;11727;52.134;5.052;2023-05-16T15:19:59;15.90;99.90
23116;DHT22;11727;52.134;5.052;2023-05-16T15:22:26;16.00;99.90
23116;DHT22;11727;52.134;5.052;2023-05-16T15:24:52;16.00;99.90
23116;DHT22;11727;52.134;5.052;2023-05-16T15:27:17;15.90;99.90
23116;DHT22;11727;52.134;5.052;2023-05-16T15:29:43;15.80;99.90
23116;DHT22;11727;52.134;5.052;2023-05-16T15:32:09;15.70;99.90
23116;DHT22;11727;52.134;5.052;2023-05-16T15:34:37;15.40;99.90
23116;DHT22;11727;52.134;5.052;2023-05-16T15:37:03;15.20;99.90
23116;DHT22;11727;52.134;5.052;2023-05-16T15:39:29;15.00;99.90
23116;DHT22;11727;52.134;5.052;2023-05-16T15:41:55;14.90;99.90
23116;DHT22;11727;52.134;5.052;2023-05-16T15:44:20;14.70;99.90
23116;DHT22;11727;52.134;5.052;2023-05-16T15:46:46;14.60;99.90
23116;DHT22;11727;52.134;5.052;2023-05-16T15:49:12;14.40;99.90
23116;DHT22;11727;52.134;5.052;2023-05-16T15:51:38;14.40;99.90
23116;DHT22;11727;52.134;5.052;2023-05-16T15:54:03;14.40;99.90
23116;DHT22;11727;52.134;5.052;2023-05-16T15:56:29;14.40;99.90
23116;DHT22;11727;52.134;5.052;2023-05-16T15:58:56;14.20;99.90
23116;DHT22;11727;52.134;5.052;2023-05-16T16:01:22;14.10;99.90
23116;DHT22;11727;52.134;5.052;2023-05-16T16:03:47;14.00;99.90
23116;DHT22;11727;52.134;5.052;2023-05-16T16:06:13;13.90;99.90